Terminal Aerodrome Forecast
Issued by NWS

Home | Current Version | Previous Version | Text Only | Print | Product List | Glossary On
Versions: 1 2 3 4 5 6 7 8 9 10 11 12 13 14 15 16
000
FTUS45 KTFX 221700 RRA
TAFHLN
TAF
KHLN 221741Z 2218/2318 28016G22KT P6SM VCSH FEW050 BKN110
     FM230100 29009KT P6SM BKN080
     FM230600 27008KT P6SM FEW080 SCT200=

USA.gov is the U.S. government's official web portal to all federal, state and local government web resources and services.